Kellersville, North Carolina
Current Conditions -  °F | °C
As of 11:15 AM on Monday 24 Nov 2014 (Local Time) from KTNB Reporting Station
Clear Clear  
Wind Chill: 56°   Ceiling: Unl
Heat Index: 56°   Visibility: 10mi
Dew Point: 48°   Wind: 9mph
Humidity: 74%   Direction: 210°SSW
Pressure: 29.79"   Gusts: NA
Location:  36.1797°N, 81.8424°W
Report Text: KTNB 241615Z AUTO 21008KT 10SM CLR 14/09 A2979 RMK AO2 T01350089
Loading
Personal Weather Stations






























Interactive Weather Map New forecast layout! Learn more

10-Day Weather Forecast

Advertisements
Track Severe Weather on mobile